Time;durP1;ratioP1;P1;durP2;ratioP2;P2;SDS_P1;SDS_P2;PMS_P1;PMS_P2;Temp;Humidity;BMP_temperature;BMP_pressure;BME280_temperature;BME280_humidity;BME280_pressure;Samples;Min_cycle;Max_cycle;Signal;HPM_P1;HPM_P2
2022/03/04 00:01:32;;;;;;;20.35;12.35;;;0.70;41.80;;;;;;5031709;28;20270;-68
2022/03/04 00:03:59;;;;;;;15.68;11.73;;;0.60;42.40;;;;;;5032760;28;20573;-69
2022/03/04 00:06:26;;;;;;;17.30;10.68;;;0.60;42.50;;;;;;5031161;28;20187;-67
2022/03/04 00:08:57;;;;;;;16.73;10.25;;;0.60;42.30;;;;;;5032349;28;20199;-67
2022/03/04 00:11:25;;;;;;;14.68;9.57;;;0.60;42.10;;;;;;5023836;28;20195;-67
2022/03/04 00:13:53;;;;;;;15.52;10.32;;;0.60;42.60;;;;;;5012606;28;20263;-67
2022/03/04 00:16:20;;;;;;;21.17;9.10;;;0.60;42.90;;;;;;5019480;28;20646;-68
2022/03/04 00:19:06;;;;;;;18.05;10.88;;;0.60;42.90;;;;;;5032809;28;20202;-68
2022/03/04 00:21:33;;;;;;;17.10;11.15;;;0.70;43.40;;;;;;5023936;28;20188;-68
2022/03/04 00:24:00;;;;;;;16.75;9.35;;;0.70;43.30;;;;;;5012710;28;20196;-68
2022/03/04 00:26:27;;;;;;;18.05;10.05;;;0.60;43.10;;;;;;5019126;28;20195;-69
2022/03/04 00:28:56;;;;;;;18.52;11.15;;;0.60;42.90;;;;;;5032411;28;20606;-68
2022/03/04 00:31:23;;;;;;;15.93;11.02;;;0.70;43.40;;;;;;5026328;28;20210;-68
2022/03/04 00:33:50;;;;;;;13.45;10.02;;;0.70;43.10;;;;;;5012291;28;20622;-68
2022/03/04 00:36:21;;;;;;;17.10;9.38;;;0.60;42.90;;;;;;5016576;28;20213;-68
2022/03/04 00:38:49;;;;;;;15.70;9.65;;;0.60;42.70;;;;;;5032265;28;20183;-67
2022/03/04 00:41:18;;;;;;;13.93;8.95;;;0.50;42.40;;;;;;5028745;28;20286;-67
2022/03/04 00:43:45;;;;;;;19.92;11.20;;;0.50;42.80;;;;;;5018010;28;20186;-67
2022/03/04 00:46:14;;;;;;;17.75;9.77;;;0.40;42.80;;;;;;5029309;28;20205;-67
2022/03/04 00:48:42;;;;;;;17.48;8.70;;;0.50;43.10;;;;;;5012424;28;20194;-68
2022/03/04 00:51:09;;;;;;;15.73;10.07;;;0.40;42.90;;;;;;5013970;28;20192;-67
2022/03/04 00:53:37;;;;;;;13.55;9.15;;;0.30;43.20;;;;;;5032372;28;20534;-68
2022/03/04 00:56:05;;;;;;;13.43;8.75;;;0.30;43.20;;;;;;5017055;28;20531;-67
2022/03/04 00:58:32;;;;;;;14.57;8.43;;;0.20;42.70;;;;;;5012136;28;20662;-69
2022/03/04 01:00:59;;;;;;;13.48;9.23;;;0.10;42.80;;;;;;5025351;28;20219;-67
2022/03/04 01:03:27;;;;;;;15.07;8.73;;;0.00;42.90;;;;;;5032267;28;20193;-67
2022/03/04 01:05:54;;;;;;;13.10;8.50;;;0.00;43.40;;;;;;5019907;28;20196;-67
2022/03/04 01:08:21;;;;;;;14.38;9.77;;;0.00;43.40;;;;;;5019001;28;20225;-67
2022/03/04 01:10:48;;;;;;;14.27;8.77;;;-0.20;42.80;;;;;;5030291;28;20187;-68
2022/03/04 01:13:16;;;;;;;12.18;8.50;;;-0.40;43.20;;;;;;5023389;28;20233;-67
2022/03/04 01:15:43;;;;;;;13.13;7.85;;;-0.50;43.70;;;;;;5010883;28;20477;-67
2022/03/04 01:18:10;;;;;;;13.75;8.80;;;-0.60;43.90;;;;;;5015303;28;20183;-68
2022/03/04 01:20:38;;;;;;;18.15;8.95;;;-0.70;44.60;;;;;;5030358;28;20330;-68
2022/03/04 01:23:05;;;;;;;17.10;9.15;;;-0.80;45.20;;;;;;5025746;28;20673;-67
2022/03/04 01:25:32;;;;;;;12.02;7.80;;;-0.80;45.60;;;;;;5010290;28;20647;-68
2022/03/04 01:27:59;;;;;;;15.88;9.68;;;-0.90;46.30;;;;;;5012479;28;20266;-68
2022/03/04 01:30:26;;;;;;;15.07;9.45;;;-0.80;46.40;;;;;;5029873;28;20209;-67
2022/03/04 01:32:54;;;;;;;13.65;8.18;;;-0.90;46.00;;;;;;5028192;28;20233;-68
2022/03/04 01:35:21;;;;;;;13.95;9.20;;;-0.90;46.20;;;;;;5010058;28;20223;-67
2022/03/04 01:37:50;;;;;;;15.88;9.00;;;-0.90;46.30;;;;;;5009589;28;20254;-68
2022/03/04 01:40:17;;;;;;;14.27;9.45;;;-0.80;46.40;;;;;;5009917;28;20816;-67
2022/03/04 01:42:44;;;;;;;19.70;10.70;;;-0.90;46.00;;;;;;5009966;28;20200;-67
2022/03/04 01:45:11;;;;;;;15.32;8.75;;;-0.90;46.00;;;;;;5027349;28;20191;-68
2022/03/04 01:47:41;;;;;;;17.08;8.75;;;-0.90;46.70;;;;;;5029618;28;20195;-67
2022/03/04 01:50:09;;;;;;;12.65;8.35;;;-0.90;47.00;;;;;;5011023;28;20192;-68
2022/03/04 01:52:36;;;;;;;22.60;9.43;;;-0.90;47.30;;;;;;5009594;28;20713;-68
2022/03/04 01:55:06;;;;;;;14.10;7.95;;;-0.90;47.70;;;;;;5025957;28;20215;-67
2022/03/04 01:57:33;;;;;;;17.08;9.45;;;-0.90;47.60;;;;;;5024274;28;20184;-68
2022/03/04 02:00:00;;;;;;;15.35;9.18;;;-1.00;48.10;;;;;;5009501;28;20271;-68
2022/03/04 02:02:27;;;;;;;17.52;8.95;;;-1.00;48.40;;;;;;5010243;28;20187;-70
2022/03/04 02:04:55;;;;;;;20.77;8.80;;;-0.90;48.40;;;;;;5009290;28;20199;-68
2022/03/04 02:07:22;;;;;;;15.88;8.93;;;-0.80;49.00;;;;;;5012983;28;20646;-67
2022/03/04 02:09:49;;;;;;;17.88;9.95;;;-0.80;48.50;;;;;;5029028;28;20191;-67
2022/03/04 02:12:18;;;;;;;15.35;7.82;;;-0.80;48.50;;;;;;5025455;28;20628;-67
2022/03/04 02:14:45;;;;;;;13.50;8.38;;;-0.80;48.50;;;;;;5008719;28;20278;-68
2022/03/04 02:17:12;;;;;;;11.25;7.60;;;-0.80;47.70;;;;;;5010187;28;20192;-68
2022/03/04 02:19:39;;;;;;;15.13;8.80;;;-0.80;47.40;;;;;;5028462;28;20207;-67
2022/03/04 02:22:08;;;;;;;13.05;8.02;;;-0.80;46.90;;;;;;5027813;28;20195;-68
2022/03/04 02:24:35;;;;;;;16.60;8.38;;;-0.80;46.80;;;;;;5008868;28;20192;-68
2022/03/04 02:27:03;;;;;;;13.00;9.00;;;-0.90;46.60;;;;;;5008755;28;20211;-68
2022/03/04 02:29:34;;;;;;;14.57;8.80;;;-0.90;46.80;;;;;;5027955;28;20638;-68
2022/03/04 02:32:02;;;;;;;13.63;8.32;;;-0.90;46.70;;;;;;5028292;28;20253;-68
2022/03/04 02:34:29;;;;;;;14.23;8.35;;;-1.00;46.70;;;;;;5009319;28;20312;-67
2022/03/04 02:36:56;;;;;;;15.10;8.40;;;-1.00;46.80;;;;;;5008781;28;20253;-67
2022/03/04 02:39:25;;;;;;;14.20;9.40;;;-1.00;47.10;;;;;;5025686;28;20641;-67
2022/03/04 02:41:52;;;;;;;15.95;10.82;;;-1.00;47.30;;;;;;5028100;28;20222;-67
2022/03/04 02:44:19;;;;;;;15.00;8.88;;;-1.10;47.20;;;;;;5012080;28;20591;-68
2022/03/04 02:46:47;;;;;;;14.20;9.57;;;-1.10;47.10;;;;;;5011820;28;20630;-67
2022/03/04 02:49:14;;;;;;;14.85;8.93;;;-1.20;47.40;;;;;;5027931;28;20201;-67
2022/03/04 02:51:41;;;;;;;13.95;8.95;;;-1.20;47.30;;;;;;5024770;28;20199;-68
2022/03/04 02:54:08;;;;;;;18.17;9.63;;;-1.20;47.90;;;;;;5007925;28;20278;-67
2022/03/04 02:56:37;;;;;;;16.50;9.68;;;-1.30;48.10;;;;;;5008683;28;20697;-68
2022/03/04 02:59:04;;;;;;;12.48;8.13;;;-1.30;48.60;;;;;;5027677;28;20600;-68
2022/03/04 03:01:31;;;;;;;13.98;8.77;;;-1.30;47.90;;;;;;5027264;28;20290;-68
2022/03/04 03:03:59;;;;;;;15.43;9.43;;;-1.40;47.70;;;;;;5008010;28;20195;-69
2022/03/04 03:06:26;;;;;;;14.45;8.80;;;-1.50;47.90;;;;;;5016068;28;20290;-67
2022/03/04 03:08:53;;;;;;;12.52;8.60;;;-1.60;48.50;;;;;;5027674;28;20199;-68
2022/03/04 03:11:20;;;;;;;14.68;8.95;;;-1.60;48.50;;;;;;5025567;28;20253;-67
2022/03/04 03:13:48;;;;;;;19.70;10.38;;;-1.60;48.50;;;;;;5027276;28;20255;-67
2022/03/04 03:16:15;;;;;;;17.20;10.48;;;-1.60;49.00;;;;;;5021465;28;20184;-73
2022/03/04 03:18:42;;;;;;;22.80;11.65;;;-1.60;49.60;;;;;;5007802;28;20262;-68
2022/03/04 03:21:09;;;;;;;20.02;9.82;;;-1.50;49.80;;;;;;5011792;28;20301;-68
2022/03/04 03:23:36;;;;;;;19.75;10.27;;;-1.50;50.20;;;;;;5027306;28;20191;-67
2022/03/04 03:26:03;;;;;;;23.98;11.63;;;-1.60;50.20;;;;;;5025428;28;20192;-67
2022/03/04 03:28:30;;;;;;;17.35;11.40;;;-1.60;50.30;;;;;;5015867;28;20657;-68
2022/03/04 03:30:59;;;;;;;16.83;10.07;;;-1.70;50.10;;;;;;5027272;28;20191;-68
2022/03/04 03:33:26;;;;;;;25.30;13.68;;;-1.60;49.80;;;;;;5026014;28;20199;-67
2022/03/04 03:35:54;;;;;;;19.60;10.48;;;-1.70;49.70;;;;;;5027267;28;20578;-68
2022/03/04 03:38:22;;;;;;;18.63;11.13;;;-1.70;49.80;;;;;;5027039;28;20604;-69
2022/03/04 03:40:50;;;;;;;18.58;11.23;;;-1.70;50.40;;;;;;5027236;28;20195;-67
2022/03/04 03:43:17;;;;;;;15.02;9.90;;;-1.60;50.50;;;;;;5027298;28;20195;-68
2022/03/04 03:45:44;;;;;;;13.48;9.15;;;-1.60;50.70;;;;;;5008327;28;20191;-68
2022/03/04 03:48:13;;;;;;;17.15;10.00;;;-1.60;50.80;;;;;;5014379;28;20737;-67
2022/03/04 03:50:40;;;;;;;16.42;9.40;;;-1.60;51.00;;;;;;5007422;28;20563;-68
2022/03/04 03:53:09;;;;;;;17.15;10.48;;;-1.60;51.40;;;;;;5023311;28;20194;-67
2022/03/04 03:55:36;;;;;;;17.90;10.48;;;-1.60;51.10;;;;;;5026964;28;20273;-67
2022/03/04 03:58:03;;;;;;;18.67;10.13;;;-1.70;50.90;;;;;;5012608;28;20188;-67
2022/03/04 04:00:31;;;;;;;15.77;10.65;;;-1.80;50.50;;;;;;5027182;28;20196;-68
2022/03/04 04:02:58;;;;;;;19.02;11.20;;;-1.80;50.80;;;;;;5013185;28;20195;-67
2022/03/04 04:05:26;;;;;;;16.45;10.57;;;-1.70;50.80;;;;;;5007557;28;20199;-67
2022/03/04 04:07:53;;;;;;;18.08;10.75;;;-1.80;50.60;;;;;;5020433;28;20219;-68
2022/03/04 04:10:21;;;;;;;21.23;12.30;;;-1.80;50.70;;;;;;5030788;28;20201;-68
2022/03/04 04:12:48;;;;;;;21.30;14.73;;;-1.70;51.10;;;;;;5018902;28;20192;-67
2022/03/04 04:15:15;;;;;;;21.35;14.15;;;-1.70;51.10;;;;;;5010607;28;20246;-67
2022/03/04 04:17:42;;;;;;;22.52;14.32;;;-1.70;51.10;;;;;;5024054;28;20183;-67
2022/03/04 04:20:10;;;;;;;32.92;15.30;;;-1.70;51.10;;;;;;5030787;28;20206;-68
2022/03/04 04:22:38;;;;;;;22.85;14.38;;;-1.70;51.30;;;;;;5017640;28;20234;-67
2022/03/04 04:25:06;;;;;;;26.05;14.25;;;-1.70;51.10;;;;;;5010791;28;20287;-68
2022/03/04 04:27:33;;;;;;;19.35;12.93;;;-1.70;51.00;;;;;;5022004;28;20187;-68
2022/03/04 04:30:00;;;;;;;23.60;12.93;;;-1.70;50.50;;;;;;5030722;28;20234;-67
2022/03/04 04:32:27;;;;;;;19.58;11.48;;;-1.70;50.10;;;;;;5028375;28;20321;-67
2022/03/04 04:34:54;;;;;;;20.23;11.95;;;-1.70;50.40;;;;;;5030464;28;20227;-67
2022/03/04 04:37:21;;;;;;;14.05;8.68;;;-1.80;50.20;;;;;;5021154;28;20195;-67
2022/03/04 04:39:49;;;;;;;17.65;9.85;;;-1.80;50.30;;;;;;5010630;28;20200;-67
2022/03/04 04:42:16;;;;;;;17.20;10.30;;;-1.90;50.60;;;;;;5017865;28;20198;-68
2022/03/04 04:44:43;;;;;;;12.27;8.63;;;-2.00;50.80;;;;;;5030347;28;20202;-68
2022/03/04 04:47:12;;;;;;;15.02;8.95;;;-2.00;50.60;;;;;;5023650;28;20192;-71
2022/03/04 04:49:39;;;;;;;15.80;8.48;;;-2.10;50.00;;;;;;5010496;28;20203;-67
2022/03/04 04:52:07;;;;;;;15.75;8.57;;;-2.10;49.70;;;;;;5015404;28;20187;-68
2022/03/04 04:54:35;;;;;;;16.10;9.25;;;-2.20;49.30;;;;;;5030314;28;20274;-67
2022/03/04 04:57:04;;;;;;;13.95;9.38;;;-2.30;48.80;;;;;;5018940;28;20188;-68
2022/03/04 04:59:31;;;;;;;14.40;9.13;;;-2.40;49.00;;;;;;5010537;28;20222;-68
2022/03/04 05:01:59;;;;;;;13.77;8.98;;;-2.50;49.30;;;;;;5019804;28;20269;-68
2022/03/04 05:04:26;;;;;;;15.48;8.88;;;-2.50;49.30;;;;;;5030180;28;20210;-67
2022/03/04 05:06:53;;;;;;;13.15;7.65;;;-2.70;49.50;;;;;;5021466;28;20192;-67
2022/03/04 05:09:20;;;;;;;17.67;9.90;;;-2.80;49.50;;;;;;5010264;28;20306;-67
2022/03/04 05:11:47;;;;;;;16.35;9.32;;;-2.80;49.70;;;;;;5016480;28;20631;-68
2022/03/04 05:14:15;;;;;;;20.50;11.00;;;-2.80;50.20;;;;;;5029623;28;20230;-67
2022/03/04 05:16:42;;;;;;;17.67;9.15;;;-2.80;50.80;;;;;;5023980;28;20250;-67
2022/03/04 05:19:09;;;;;;;11.40;7.47;;;-2.80;50.40;;;;;;5009264;28;20203;-67
2022/03/04 05:21:36;;;;;;;14.88;9.05;;;-2.80;49.50;;;;;;5013736;28;20187;-67
2022/03/04 05:24:06;;;;;;;16.58;9.13;;;-2.70;49.60;;;;;;5029915;28;20191;-72
2022/03/04 05:26:36;;;;;;;13.63;7.30;;;-2.80;49.30;;;;;;5025844;28;20211;-67
2022/03/04 05:29:05;;;;;;;13.98;8.57;;;-2.80;49.30;;;;;;5009597;28;20223;-68
2022/03/04 05:31:33;;;;;;;18.92;9.75;;;-2.90;49.60;;;;;;5012171;28;20196;-67
2022/03/04 05:34:00;;;;;;;14.40;8.85;;;-2.80;50.40;;;;;;5029846;28;20203;-67
2022/03/04 05:36:27;;;;;;;12.10;8.52;;;-2.80;50.60;;;;;;5027597;28;20273;-68
2022/03/04 05:38:55;;;;;;;19.63;10.93;;;-2.90;51.10;;;;;;5009809;28;20188;-67
2022/03/04 05:41:22;;;;;;;15.65;8.85;;;-2.90;51.20;;;;;;5026617;28;20194;-67
2022/03/04 05:43:49;;;;;;;16.40;11.02;;;-2.90;51.70;;;;;;5029544;28;20587;-67
2022/03/04 05:46:17;;;;;;;22.33;11.40;;;-2.80;52.20;;;;;;5012656;28;20583;-67
2022/03/04 05:48:46;;;;;;;14.38;9.75;;;-2.80;51.60;;;;;;5025418;28;20210;-68
2022/03/04 05:51:14;;;;;;;17.48;10.68;;;-2.80;50.90;;;;;;5027501;28;20199;-67
2022/03/04 05:53:41;;;;;;;15.73;8.60;;;-2.80;51.00;;;;;;5026657;28;20730;-67
2022/03/04 05:56:10;;;;;;;19.27;10.10;;;-2.80;51.20;;;;;;5027325;28;20202;-69
2022/03/04 05:58:38;;;;;;;21.75;10.60;;;-2.80;52.00;;;;;;5022882;28;20249;-68
2022/03/04 06:01:06;;;;;;;16.85;10.20;;;-2.80;52.50;;;;;;5026723;28;20202;-68
2022/03/04 06:03:34;;;;;;;14.98;10.35;;;-2.90;52.00;;;;;;5025933;28;20187;-67
2022/03/04 06:06:03;;;;;;;21.70;12.80;;;-3.00;52.70;;;;;;5027420;28;20223;-67
2022/03/04 06:08:31;;;;;;;17.88;11.10;;;-2.90;53.20;;;;;;5027615;28;20202;-68
2022/03/04 06:11:02;;;;;;;27.00;14.25;;;-2.90;53.50;;;;;;5028986;28;20284;-67
2022/03/04 06:13:29;;;;;;;25.92;16.38;;;-2.90;53.30;;;;;;5026399;28;20218;-68
2022/03/04 06:15:56;;;;;;;26.65;14.40;;;-2.90;53.00;;;;;;5027732;28;20198;-67
2022/03/04 06:18:23;;;;;;;22.27;13.40;;;-2.90;53.40;;;;;;5026636;28;20218;-67
2022/03/04 06:20:50;;;;;;;21.30;12.18;;;-2.80;53.90;;;;;;5027232;28;20191;-67
2022/03/04 06:23:19;;;;;;;22.92;12.02;;;-2.70;53.90;;;;;;5026004;28;20245;-67
2022/03/04 06:25:46;;;;;;;23.85;13.18;;;-2.60;54.10;;;;;;5024511;28;20215;-67
2022/03/04 06:28:13;;;;;;;16.45;10.57;;;-2.50;54.60;;;;;;5019616;28;20646;-68
2022/03/04 06:30:40;;;;;;;20.42;12.75;;;-2.40;54.80;;;;;;5027001;28;20198;-68
2022/03/04 06:35:54;;;;;;;20.95;12.05;;;-2.10;54.80;;;;;;5027522;28;20198;-71
2022/03/04 06:38:23;;;;;;;19.70;11.60;;;-2.00;54.10;;;;;;5023206;28;20183;-68
2022/03/04 06:40:50;;;;;;;24.95;12.90;;;-1.90;53.90;;;;;;5027749;28;20199;-67
2022/03/04 06:43:18;;;;;;;24.35;12.73;;;-1.70;53.80;;;;;;5026953;28;21041;-67
2022/03/04 06:45:48;;;;;;;18.83;12.80;;;-1.60;53.40;;;;;;5026145;28;20265;-68
2022/03/04 06:48:18;;;;;;;19.73;11.32;;;-1.30;53.20;;;;;;5027800;28;20316;-67
2022/03/04 06:50:45;;;;;;;16.70;11.30;;;-1.10;52.50;;;;;;5026316;28;20191;-67
2022/03/04 06:53:12;;;;;;;18.75;12.68;;;-0.80;52.00;;;;;;5027390;28;20188;-69
2022/03/04 06:55:40;;;;;;;23.73;13.15;;;-0.40;51.90;;;;;;5027997;28;20577;-68
2022/03/04 06:58:07;;;;;;;18.98;13.52;;;0.00;51.40;;;;;;5028082;28;20697;-67
2022/03/04 07:00:34;;;;;;;23.52;13.50;;;0.50;50.70;;;;;;5027789;28;20559;-68
2022/03/04 07:03:02;;;;;;;22.50;13.57;;;1.00;49.20;;;;;;5024455;28;20191;-68
2022/03/04 07:05:29;;;;;;;19.48;13.45;;;1.50;48.00;;;;;;5025051;28;20269;-69
2022/03/04 07:07:56;;;;;;;20.15;11.90;;;2.10;47.40;;;;;;5026695;28;20234;-67
2022/03/04 07:10:23;;;;;;;20.40;12.48;;;2.50;45.30;;;;;;5023324;28;20187;-68
2022/03/04 07:12:51;;;;;;;20.40;12.20;;;3.10;44.20;;;;;;5028009;28;20249;-68
2022/03/04 07:15:19;;;;;;;18.02;13.20;;;3.70;42.60;;;;;;5028124;28;20667;-68
2022/03/04 07:17:46;;;;;;;18.92;12.20;;;4.20;41.30;;;;;;5026669;28;20195;-68
2022/03/04 07:20:14;;;;;;;18.23;11.88;;;4.70;39.80;;;;;;5027725;28;20313;-68
2022/03/04 07:22:43;;;;;;;17.35;10.82;;;5.50;39.20;;;;;;5026948;28;20190;-68
2022/03/04 07:25:12;;;;;;;23.80;12.32;;;6.30;36.70;;;;;;5028579;28;20218;-72
2022/03/04 07:27:40;;;;;;;21.25;14.90;;;7.30;35.50;;;;;;5022857;28;20202;-68
2022/03/04 07:30:11;;;;;;;23.80;14.73;;;8.40;33.10;;;;;;5026807;28;20251;-68
2022/03/04 07:32:41;;;;;;;23.02;13.27;;;9.40;31.70;;;;;;5026045;28;20704;-68
2022/03/04 07:35:09;;;;;;;25.65;14.48;;;10.40;29.50;;;;;;5026076;28;20260;-68
2022/03/04 07:37:36;;;;;;;23.05;15.38;;;11.40;27.20;;;;;;5027193;28;20192;-69
2022/03/04 07:40:04;;;;;;;24.20;15.90;;;12.10;26.40;;;;;;5027028;28;20191;-69
2022/03/04 07:42:31;;;;;;;20.05;13.35;;;12.90;25.10;;;;;;5028831;28;20234;-69
2022/03/04 07:44:58;;;;;;;21.30;14.25;;;13.50;24.50;;;;;;5032074;28;20241;-69
2022/03/04 07:47:26;;;;;;;22.60;14.38;;;14.10;23.40;;;;;;5033028;28;20677;-68
2022/03/04 07:49:54;;;;;;;20.90;15.85;;;14.80;22.70;;;;;;5031698;28;20269;-68
2022/03/04 07:52:20;;;;;;;18.42;13.23;;;15.50;22.10;;;;;;5028625;28;20191;-68
2022/03/04 07:54:47;;;;;;;19.23;14.77;;;16.30;22.00;;;;;;5031723;28;20183;-67
2022/03/04 07:57:14;;;;;;;22.30;15.80;;;17.00;20.80;;;;;;5030788;28;20191;-67
2022/03/04 07:59:41;;;;;;;18.17;15.60;;;17.60;20.70;;;;;;5030550;28;20241;-67
2022/03/04 08:02:08;;;;;;;17.73;14.82;;;18.60;20.10;;;;;;5032375;28;20226;-73
2022/03/04 08:04:36;;;;;;;17.45;14.98;;;19.60;19.10;;;;;;5028307;28;20187;-68
2022/03/04 08:07:08;;;;;;;21.20;16.60;;;20.20;18.00;;;;;;5027328;28;20250;-67
2022/03/04 08:09:35;;;;;;;20.03;16.97;;;21.10;17.90;;;;;;5028753;28;20245;-68
2022/03/04 08:12:02;;;;;;;21.33;18.60;;;21.90;17.20;;;;;;5028718;28;20958;-67
2022/03/04 08:14:29;;;;;;;22.70;18.40;;;22.80;16.80;;;;;;5031529;28;20933;-68
2022/03/04 08:16:56;;;;;;;23.20;19.33;;;23.60;16.10;;;;;;5033175;28;20485;-67
2022/03/04 08:19:23;;;;;;;18.93;15.90;;;24.30;15.30;;;;;;5026203;28;20442;-67
2022/03/04 08:21:52;;;;;;;17.47;15.30;;;25.00;14.70;;;;;;5027519;28;20436;-71
2022/03/04 08:24:19;;;;;;;18.50;16.50;;;25.50;14.20;;;;;;5027342;28;20449;-67
2022/03/04 08:26:46;;;;;;;19.60;16.77;;;25.50;13.50;;;;;;5031591;28;20444;-67
2022/03/04 08:29:14;;;;;;;19.60;16.60;;;25.70;13.40;;;;;;5028293;28;20464;-67
2022/03/04 08:31:41;;;;;;;19.53;17.07;;;26.20;13.40;;;;;;5030762;28;20435;-71
2022/03/04 08:34:08;;;;;;;19.67;17.07;;;26.80;12.30;;;;;;5028345;28;20465;-67
2022/03/04 08:36:36;;;;;;;20.30;18.17;;;27.40;12.20;;;;;;5033234;28;20516;-68
2022/03/04 08:39:05;;;;;;;22.47;19.27;;;28.10;12.00;;;;;;5033431;28;20440;-69
2022/03/04 08:41:33;;;;;;;18.43;16.53;;;28.90;12.20;;;;;;5032942;28;20438;-70
2022/03/04 08:44:01;;;;;;;17.67;15.70;;;29.70;11.40;;;;;;5032276;28;21169;-67
2022/03/04 08:46:28;;;;;;;16.80;14.03;;;30.10;9.40;;;;;;5033603;28;20448;-67
2022/03/04 08:48:55;;;;;;;17.10;15.23;;;30.50;10.10;;;;;;5032505;28;20916;-67
2022/03/04 08:51:25;;;;;;;16.53;14.80;;;30.90;9.50;;;;;;5032865;28;20454;-68
2022/03/04 08:53:52;;;;;;;18.63;16.10;;;31.50;10.00;;;;;;5031895;28;20470;-68
2022/03/04 08:56:21;;;;;;;15.40;13.90;;;32.10;9.00;;;;;;5033109;28;20489;-68
2022/03/04 08:58:49;;;;;;;18.83;16.40;;;32.30;8.60;;;;;;5032456;28;20808;-68
2022/03/04 09:01:16;;;;;;;15.67;14.13;;;32.50;8.80;;;;;;5028206;28;20445;-67
2022/03/04 09:03:43;;;;;;;16.50;14.93;;;33.10;8.50;;;;;;5030292;28;20948;-67
2022/03/04 09:06:10;;;;;;;17.10;15.07;;;33.50;7.60;;;;;;5028293;28;20437;-67
2022/03/04 09:08:37;;;;;;;16.83;15.00;;;34.00;7.60;;;;;;5029677;28;20829;-68
2022/03/04 09:11:04;;;;;;;18.53;16.70;;;34.50;7.40;;;;;;5032528;28;20442;-68
2022/03/04 09:13:33;;;;;;;16.77;15.07;;;34.90;7.10;;;;;;5028638;28;20470;-68
2022/03/04 09:16:01;;;;;;;19.73;16.73;;;35.10;6.90;;;;;;5032640;28;20568;-70
2022/03/04 09:18:28;;;;;;;19.53;16.23;;;35.40;7.20;;;;;;5030571;28;20830;-68
2022/03/04 09:20:55;;;;;;;18.17;16.27;;;35.70;6.50;;;;;;5025516;28;20805;-67
2022/03/04 09:23:22;;;;;;;17.10;15.40;;;36.00;6.30;;;;;;5031950;28;20440;-68
2022/03/04 09:25:49;;;;;;;16.30;14.77;;;36.20;6.10;;;;;;5026988;28;20448;-68
2022/03/04 09:28:17;;;;;;;16.50;14.90;;;36.50;6.50;;;;;;5026920;28;20932;-68
2022/03/04 09:30:45;;;;;;;16.30;14.80;;;36.80;6.10;;;;;;5031747;28;20486;-68
2022/03/04 09:33:12;;;;;;;16.50;14.80;;;37.20;6.30;;;;;;5032566;28;20450;-68
2022/03/04 09:35:39;;;;;;;18.67;16.87;;;37.60;5.90;;;;;;5031301;28;20445;-68
2022/03/04 09:38:06;;;;;;;17.77;15.80;;;37.40;6.20;;;;;;5032186;28;20449;-67
2022/03/04 09:40:33;;;;;;;17.60;15.00;;;37.60;5.70;;;;;;5031480;28;20941;-68
2022/03/04 09:43:01;;;;;;;17.63;15.87;;;37.90;5.70;;;;;;5028362;28;20443;-68
2022/03/04 09:45:30;;;;;;;19.00;16.40;;;38.10;5.60;;;;;;5026965;28;20442;-70
2022/03/04 09:47:58;;;;;;;18.00;16.30;;;38.60;5.60;;;;;;5028523;28;20482;-76
2022/03/04 09:50:29;;;;;;;17.37;15.70;;;39.10;5.50;;;;;;5031167;28;20444;-68
2022/03/04 09:52:56;;;;;;;17.23;15.53;;;39.30;5.30;;;;;;5031869;28;20529;-68
2022/03/04 09:55:23;;;;;;;18.90;17.10;;;39.40;4.30;;;;;;5031075;28;20446;-68
2022/03/04 09:57:50;;;;;;;18.20;16.53;;;39.30;4.90;;;;;;5028081;28;20527;-68
2022/03/04 10:00:17;;;;;;;19.30;17.60;;;39.50;4.90;;;;;;5030257;28;20453;-68
2022/03/04 10:02:44;;;;;;;17.33;15.73;;;39.90;4.40;;;;;;5030543;28;20838;-69
2022/03/04 10:05:13;;;;;;;19.20;17.30;;;40.00;4.00;;;;;;5027991;28;20442;-68
2022/03/04 10:07:42;;;;;;;19.37;17.20;;;39.90;4.50;;;;;;5030762;28;20508;-68
2022/03/04 10:10:15;;;;;;;19.17;17.17;;;40.00;4.60;;;;;;5030545;28;20449;-68
2022/03/04 10:12:55;;;;;;;18.70;16.90;;;40.40;4.20;;;;;;5027463;28;20448;-68
2022/03/04 10:15:24;;;;;;;19.93;17.87;;;40.70;3.90;;;;;;5030260;28;20472;-69
2022/03/04 10:18:00;;;;;;;19.20;17.50;;;41.00;3.90;;;;;;5031286;28;20441;-69
2022/03/04 10:20:40;;;;;;;19.40;17.40;;;41.40;3.90;;;;;;5029883;28;20451;-68
2022/03/04 10:23:19;;;;;;;18.83;17.13;;;41.40;3.60;;;;;;5031416;28;20446;-68
2022/03/04 10:25:48;;;;;;;17.93;16.27;;;41.70;3.90;;;;;;5028083;28;20957;-69
2022/03/04 10:28:16;;;;;;;18.40;16.80;;;42.20;3.90;;;;;;5030462;28;20481;-69
2022/03/04 10:30:45;;;;;;;15.60;14.07;;;42.20;3.60;;;;;;5026877;28;20489;-69
2022/03/04 10:33:14;;;;;;;16.13;14.50;;;42.20;3.00;;;;;;5028059;28;20826;-74
2022/03/04 10:35:44;;;;;;;19.73;15.77;;;42.30;2.70;;;;;;5027348;28;20440;-72
2022/03/04 10:38:22;;;;;;;17.87;16.20;;;42.30;2.00;;;;;;5027105;28;20469;-69
2022/03/04 10:40:49;;;;;;;17.03;15.43;;;42.30;2.30;;;;;;5018593;28;20488;-68
2022/03/04 10:43:23;;;;;;;17.10;15.50;;;42.70;2.40;;;;;;5026011;28;20452;-69
2022/03/04 10:46:01;;;;;;;17.27;15.57;;;42.90;2.20;;;;;;5030965;28;20441;-72
2022/03/04 10:48:28;;;;;;;16.40;15.00;;;43.10;1.80;;;;;;5019306;28;20489;-69
2022/03/04 10:51:03;;;;;;;18.60;16.90;;;43.20;1.50;;;;;;5031197;28;20441;-70
2022/03/04 10:53:32;;;;;;;15.63;14.13;;;43.10;1.30;;;;;;5020904;28;20437;-69
2022/03/04 10:56:00;;;;;;;16.37;14.77;;;42.50;1.60;;;;;;5028591;28;20444;-68
2022/03/04 10:58:29;;;;;;;16.33;14.83;;;42.30;1.10;;;;;;5031045;28;20499;-68
2022/03/04 11:00:59;;;;;;;17.40;15.60;;;42.10;1.40;;;;;;5030081;28;20770;-68
2022/03/04 11:03:28;;;;;;;16.90;15.23;;;42.20;1.40;;;;;;5030853;28;20449;-68
2022/03/04 11:06:02;;;;;;;17.93;14.17;;;42.00;1.70;;;;;;5030044;28;20442;-68
2022/03/04 11:08:30;;;;;;;16.43;14.97;;;42.20;1.30;;;;;;5030865;28;20480;-68
2022/03/04 11:10:59;;;;;;;16.60;15.00;;;42.20;1.40;;;;;;5030532;28;20523;-68
2022/03/04 11:13:26;;;;;;;16.20;14.70;;;41.90;1.20;;;;;;5030919;28;20440;-68
2022/03/04 11:15:55;;;;;;;15.50;14.07;;;42.10;1.80;;;;;;5028327;28;20450;-69
2022/03/04 11:18:26;;;;;;;15.37;13.83;;;42.60;1.70;;;;;;5033840;28;20445;-68
2022/03/04 11:20:56;;;;;;;14.63;13.23;;;42.70;1.00;;;;;;5033587;28;20437;-69
2022/03/04 11:23:25;;;;;;;14.20;12.87;;;42.60;1.00;;;;;;5031780;28;20536;-70
2022/03/04 11:25:56;;;;;;;11.73;10.60;;;42.50;1.10;;;;;;5032907;28;20457;-68
2022/03/04 11:28:27;;;;;;;13.63;12.23;;;42.40;1.00;;;;;;5033778;28;20489;-68
2022/03/04 11:31:00;;;;;;;15.10;13.70;;;42.40;1.00;;;;;;5028547;28;20456;-69
2022/03/04 11:33:29;;;;;;;14.70;11.70;;;42.10;1.00;;;;;;5032905;28;20426;-69
2022/03/04 11:36:02;;;;;;;12.73;11.53;;;42.40;1.00;;;;;;5033850;28;20445;-72
2022/03/04 11:39:06;;;;;;;12.20;10.90;;;42.30;1.00;;;;;;5030911;28;20433;-78
2022/03/04 11:41:39;;;;;;;12.10;10.60;;;42.50;1.10;;;;;;5027462;28;20448;-70
2022/03/04 11:44:17;;;;;;;11.30;10.30;;;42.80;1.30;;;;;;5034187;28;20508;-69
2022/03/04 11:46:48;;;;;;;13.10;11.80;;;43.40;1.00;;;;;;5033846;28;20492;-69
2022/03/04 11:49:27;;;;;;;12.27;10.90;;;43.50;1.00;;;;;;5034300;28;20446;-70
2022/03/04 11:52:24;;;;;;;12.70;11.37;;;43.10;1.00;;;;;;5029097;28;20487;-69
2022/03/04 11:55:26;;;;;;;11.73;10.30;;;42.90;1.00;;;;;;5033335;28;20437;-70
2022/03/04 11:58:04;;;;;;;10.83;9.70;;;43.20;1.00;;;;;;5033589;28;20440;-70
2022/03/04 12:00:37;;;;;;;10.53;9.30;;;43.60;1.00;;;;;;5032818;28;20436;-71
2022/03/04 12:03:16;;;;;;;11.43;9.93;;;43.90;1.00;;;;;;5033636;28;20913;-72
2022/03/04 12:05:51;;;;;;;10.70;9.70;;;44.10;1.00;;;;;;5032925;28;20846;-69
2022/03/04 12:08:19;;;;;;;10.93;9.60;;;44.10;1.00;;;;;;5033168;28;21006;-69
2022/03/04 12:10:53;;;;;;;10.37;9.37;;;44.40;1.00;;;;;;5033021;28;20503;-69
2022/03/04 12:13:21;;;;;;;10.90;9.90;;;43.60;1.00;;;;;;5033472;28;20849;-70
2022/03/04 12:16:01;;;;;;;9.60;8.67;;;43.40;1.00;;;;;;5030337;28;20525;-81
2022/03/04 12:18:35;;;;;;;11.90;9.23;;;42.90;1.00;;;;;;5031932;28;20558;-68
2022/03/04 12:21:13;;;;;;;10.77;9.67;;;42.70;1.00;;;;;;5031940;28;20515;-69
2022/03/04 12:23:53;;;;;;;9.60;8.67;;;42.50;1.00;;;;;;5033515;28;20437;-69
2022/03/04 12:26:25;;;;;;;9.40;8.50;;;42.40;1.00;;;;;;5030875;28;21011;-68
2022/03/04 12:29:00;;;;;;;9.80;8.83;;;42.80;1.00;;;;;;5032431;28;20842;-69
2022/03/04 12:31:27;;;;;;;9.77;8.87;;;42.70;1.00;;;;;;5022884;28;20934;-80
2022/03/04 12:33:58;;;;;;;9.67;8.77;;;42.60;1.00;;;;;;5027469;28;20442;-70
2022/03/04 12:36:28;;;;;;;10.70;9.63;;;42.20;1.00;;;;;;5031054;28;20441;-73
2022/03/04 12:38:59;;;;;;;10.00;9.10;;;41.60;1.00;;;;;;5032191;28;20441;-69
2022/03/04 12:41:28;;;;;;;9.63;8.43;;;41.40;1.00;;;;;;5029236;28;20450;-69
2022/03/04 12:43:56;;;;;;;10.10;9.20;;;41.40;1.00;;;;;;5032876;28;20848;-69
2022/03/04 12:46:25;;;;;;;10.37;9.33;;;41.40;1.00;;;;;;5031764;28;20449;-70